sensor_id;sensor_type;location;lat;lon;timestamp;P1;durP1;ratioP1;P2;durP2;ratioP2
16890;SDS011;8562;52.246;20.966;2023-02-15T00:01:07;22.43;;;12.83;;
16890;SDS011;8562;52.246;20.966;2023-02-15T00:03:33;25.17;;;13.60;;
16890;SDS011;8562;52.246;20.966;2023-02-15T00:05:58;18.80;;;11.40;;
16890;SDS011;8562;52.246;20.966;2023-02-15T00:08:23;20.00;;;11.80;;
16890;SDS011;8562;52.246;20.966;2023-02-15T00:10:49;24.90;;;12.83;;
16890;SDS011;8562;52.246;20.966;2023-02-15T00:13:14;23.70;;;12.87;;
16890;SDS011;8562;52.246;20.966;2023-02-15T00:15:39;26.63;;;12.67;;
16890;SDS011;8562;52.246;20.966;2023-02-15T00:18:04;16.90;;;12.73;;
16890;SDS011;8562;52.246;20.966;2023-02-15T00:20:30;22.77;;;11.97;;
16890;SDS011;8562;52.246;20.966;2023-02-15T00:22:55;19.43;;;11.50;;
16890;SDS011;8562;52.246;20.966;2023-02-15T00:25:20;21.00;;;12.17;;
16890;SDS011;8562;52.246;20.966;2023-02-15T00:27:45;19.23;;;12.90;;
16890;SDS011;8562;52.246;20.966;2023-02-15T00:30:11;21.47;;;13.43;;
16890;SDS011;8562;52.246;20.966;2023-02-15T00:32:36;28.83;;;13.97;;
16890;SDS011;8562;52.246;20.966;2023-02-15T00:35:02;18.57;;;11.57;;
16890;SDS011;8562;52.246;20.966;2023-02-15T00:37:27;20.50;;;12.47;;
16890;SDS011;8562;52.246;20.966;2023-02-15T00:39:52;20.53;;;10.77;;
16890;SDS011;8562;52.246;20.966;2023-02-15T00:42:17;21.47;;;10.87;;
16890;SDS011;8562;52.246;20.966;2023-02-15T00:44:43;19.23;;;12.00;;
16890;SDS011;8562;52.246;20.966;2023-02-15T00:47:08;23.87;;;12.63;;
16890;SDS011;8562;52.246;20.966;2023-02-15T00:49:33;17.67;;;11.30;;
16890;SDS011;8562;52.246;20.966;2023-02-15T00:51:59;17.47;;;10.43;;
16890;SDS011;8562;52.246;20.966;2023-02-15T00:54:24;30.40;;;14.63;;
16890;SDS011;8562;52.246;20.966;2023-02-15T00:56:49;24.43;;;12.50;;
16890;SDS011;8562;52.246;20.966;2023-02-15T00:59:14;23.10;;;12.47;;
16890;SDS011;8562;52.246;20.966;2023-02-15T01:01:40;24.37;;;12.30;;
16890;SDS011;8562;52.246;20.966;2023-02-15T01:04:05;24.50;;;12.13;;
16890;SDS011;8562;52.246;20.966;2023-02-15T01:06:30;21.93;;;12.30;;
16890;SDS011;8562;52.246;20.966;2023-02-15T01:08:56;23.43;;;12.40;;
16890;SDS011;8562;52.246;20.966;2023-02-15T01:11:21;23.00;;;12.90;;
16890;SDS011;8562;52.246;20.966;2023-02-15T01:13:50;22.83;;;12.20;;
16890;SDS011;8562;52.246;20.966;2023-02-15T01:16:15;22.60;;;11.23;;
16890;SDS011;8562;52.246;20.966;2023-02-15T01:18:41;23.13;;;12.70;;
16890;SDS011;8562;52.246;20.966;2023-02-15T01:21:08;21.17;;;12.23;;
16890;SDS011;8562;52.246;20.966;2023-02-15T01:23:34;22.03;;;12.17;;
16890;SDS011;8562;52.246;20.966;2023-02-15T01:26:03;23.30;;;13.60;;
16890;SDS011;8562;52.246;20.966;2023-02-15T01:28:28;23.27;;;12.80;;
16890;SDS011;8562;52.246;20.966;2023-02-15T01:30:54;29.20;;;13.33;;
16890;SDS011;8562;52.246;20.966;2023-02-15T01:33:19;24.90;;;13.33;;
16890;SDS011;8562;52.246;20.966;2023-02-15T01:35:45;28.03;;;14.17;;
16890;SDS011;8562;52.246;20.966;2023-02-15T01:38:11;26.23;;;13.73;;
16890;SDS011;8562;52.246;20.966;2023-02-15T01:40:37;22.90;;;12.80;;
16890;SDS011;8562;52.246;20.966;2023-02-15T01:43:07;26.00;;;13.60;;
16890;SDS011;8562;52.246;20.966;2023-02-15T01:45:34;25.73;;;12.27;;
16890;SDS011;8562;52.246;20.966;2023-02-15T01:50:47;20.90;;;12.63;;
16890;SDS011;8562;52.246;20.966;2023-02-15T01:53:27;23.90;;;13.50;;
16890;SDS011;8562;52.246;20.966;2023-02-15T01:55:54;26.13;;;14.83;;
16890;SDS011;8562;52.246;20.966;2023-02-15T01:58:21;23.13;;;12.70;;
16890;SDS011;8562;52.246;20.966;2023-02-15T02:00:47;24.03;;;12.53;;
16890;SDS011;8562;52.246;20.966;2023-02-15T02:03:12;23.70;;;13.27;;
16890;SDS011;8562;52.246;20.966;2023-02-15T02:05:38;22.67;;;14.10;;
16890;SDS011;8562;52.246;20.966;2023-02-15T02:08:03;22.00;;;12.30;;
16890;SDS011;8562;52.246;20.966;2023-02-15T02:10:30;26.10;;;14.40;;
16890;SDS011;8562;52.246;20.966;2023-02-15T02:12:57;21.50;;;12.93;;
16890;SDS011;8562;52.246;20.966;2023-02-15T02:15:27;33.13;;;15.30;;
16890;SDS011;8562;52.246;20.966;2023-02-15T02:18:15;23.93;;;14.20;;
16890;SDS011;8562;52.246;20.966;2023-02-15T02:20:54;27.10;;;13.63;;
16890;SDS011;8562;52.246;20.966;2023-02-15T02:36:06;24.73;;;12.43;;
16890;SDS011;8562;52.246;20.966;2023-02-15T02:43:51;27.17;;;13.30;;
16890;SDS011;8562;52.246;20.966;2023-02-15T02:48:45;27.07;;;12.53;;
16890;SDS011;8562;52.246;20.966;2023-02-15T02:51:11;20.60;;;11.37;;
16890;SDS011;8562;52.246;20.966;2023-02-15T02:53:36;27.23;;;12.40;;
16890;SDS011;8562;52.246;20.966;2023-02-15T02:56:19;25.30;;;12.20;;
16890;SDS011;8562;52.246;20.966;2023-02-15T02:58:48;26.40;;;13.03;;
16890;SDS011;8562;52.246;20.966;2023-02-15T03:01:15;26.07;;;13.27;;
16890;SDS011;8562;52.246;20.966;2023-02-15T03:03:52;20.80;;;12.60;;
16890;SDS011;8562;52.246;20.966;2023-02-15T03:06:27;23.10;;;12.03;;
16890;SDS011;8562;52.246;20.966;2023-02-15T03:08:56;27.50;;;12.47;;
16890;SDS011;8562;52.246;20.966;2023-02-15T03:11:23;26.00;;;13.53;;
16890;SDS011;8562;52.246;20.966;2023-02-15T03:13:50;24.50;;;12.43;;
16890;SDS011;8562;52.246;20.966;2023-02-15T03:16:18;23.93;;;12.30;;
16890;SDS011;8562;52.246;20.966;2023-02-15T03:21:24;23.30;;;13.63;;
16890;SDS011;8562;52.246;20.966;2023-02-15T03:24:02;22.20;;;12.07;;
16890;SDS011;8562;52.246;20.966;2023-02-15T03:26:29;19.30;;;9.97;;
16890;SDS011;8562;52.246;20.966;2023-02-15T03:28:55;19.33;;;12.30;;
16890;SDS011;8562;52.246;20.966;2023-02-15T03:31:23;24.50;;;12.10;;
16890;SDS011;8562;52.246;20.966;2023-02-15T03:33:53;22.97;;;12.10;;
16890;SDS011;8562;52.246;20.966;2023-02-15T03:41:35;20.33;;;11.83;;
16890;SDS011;8562;52.246;20.966;2023-02-15T03:44:05;23.53;;;12.07;;
16890;SDS011;8562;52.246;20.966;2023-02-15T03:49:17;17.87;;;10.60;;
16890;SDS011;8562;52.246;20.966;2023-02-15T03:51:46;21.10;;;10.47;;
16890;SDS011;8562;52.246;20.966;2023-02-15T03:54:13;26.73;;;14.30;;
16890;SDS011;8562;52.246;20.966;2023-02-15T03:56:59;21.00;;;11.13;;
16890;SDS011;8562;52.246;20.966;2023-02-15T03:59:44;24.20;;;11.17;;
16890;SDS011;8562;52.246;20.966;2023-02-15T04:02:38;21.87;;;11.20;;
16890;SDS011;8562;52.246;20.966;2023-02-15T04:05:06;19.57;;;11.77;;
16890;SDS011;8562;52.246;20.966;2023-02-15T04:07:31;18.73;;;11.90;;
16890;SDS011;8562;52.246;20.966;2023-02-15T04:09:56;19.83;;;11.47;;
16890;SDS011;8562;52.246;20.966;2023-02-15T04:12:40;19.83;;;10.40;;
16890;SDS011;8562;52.246;20.966;2023-02-15T04:15:06;19.67;;;10.90;;
16890;SDS011;8562;52.246;20.966;2023-02-15T04:17:50;17.77;;;10.80;;
16890;SDS011;8562;52.246;20.966;2023-02-15T04:20:15;19.67;;;10.90;;
16890;SDS011;8562;52.246;20.966;2023-02-15T04:22:59;22.20;;;11.90;;
16890;SDS011;8562;52.246;20.966;2023-02-15T04:25:43;14.87;;;9.30;;
16890;SDS011;8562;52.246;20.966;2023-02-15T04:28:08;18.63;;;10.47;;
16890;SDS011;8562;52.246;20.966;2023-02-15T04:30:34;22.03;;;11.33;;
16890;SDS011;8562;52.246;20.966;2023-02-15T04:32:59;13.63;;;8.00;;
16890;SDS011;8562;52.246;20.966;2023-02-15T04:35:24;18.47;;;9.90;;
16890;SDS011;8562;52.246;20.966;2023-02-15T04:37:50;16.07;;;9.40;;
16890;SDS011;8562;52.246;20.966;2023-02-15T04:40:16;20.83;;;8.97;;
16890;SDS011;8562;52.246;20.966;2023-02-15T04:42:41;18.03;;;9.87;;
16890;SDS011;8562;52.246;20.966;2023-02-15T04:45:06;14.77;;;8.63;;
16890;SDS011;8562;52.246;20.966;2023-02-15T04:47:32;15.60;;;8.57;;
16890;SDS011;8562;52.246;20.966;2023-02-15T04:49:57;17.03;;;9.33;;
16890;SDS011;8562;52.246;20.966;2023-02-15T04:52:23;16.17;;;9.03;;
16890;SDS011;8562;52.246;20.966;2023-02-15T04:54:48;15.67;;;9.83;;
16890;SDS011;8562;52.246;20.966;2023-02-15T04:57:14;15.80;;;7.77;;
16890;SDS011;8562;52.246;20.966;2023-02-15T04:59:39;18.03;;;9.67;;
16890;SDS011;8562;52.246;20.966;2023-02-15T05:02:04;15.77;;;8.90;;
16890;SDS011;8562;52.246;20.966;2023-02-15T05:04:30;15.57;;;8.33;;
16890;SDS011;8562;52.246;20.966;2023-02-15T05:06:55;18.40;;;10.03;;
16890;SDS011;8562;52.246;20.966;2023-02-15T05:09:20;20.63;;;9.57;;
16890;SDS011;8562;52.246;20.966;2023-02-15T05:11:45;16.13;;;9.43;;
16890;SDS011;8562;52.246;20.966;2023-02-15T05:14:11;13.43;;;9.03;;
16890;SDS011;8562;52.246;20.966;2023-02-15T05:16:36;16.10;;;9.73;;
16890;SDS011;8562;52.246;20.966;2023-02-15T05:19:02;19.53;;;9.80;;
16890;SDS011;8562;52.246;20.966;2023-02-15T05:21:27;17.30;;;8.03;;
16890;SDS011;8562;52.246;20.966;2023-02-15T05:23:52;17.50;;;11.13;;
16890;SDS011;8562;52.246;20.966;2023-02-15T05:26:19;25.57;;;10.93;;
16890;SDS011;8562;52.246;20.966;2023-02-15T05:29:03;17.03;;;8.40;;
16890;SDS011;8562;52.246;20.966;2023-02-15T05:31:28;13.67;;;9.63;;
16890;SDS011;8562;52.246;20.966;2023-02-15T05:33:54;16.17;;;9.53;;
16890;SDS011;8562;52.246;20.966;2023-02-15T05:36:19;16.40;;;8.83;;
16890;SDS011;8562;52.246;20.966;2023-02-15T05:38:44;19.03;;;9.60;;
16890;SDS011;8562;52.246;20.966;2023-02-15T05:41:10;18.23;;;8.90;;
16890;SDS011;8562;52.246;20.966;2023-02-15T05:43:36;16.90;;;9.67;;
16890;SDS011;8562;52.246;20.966;2023-02-15T05:46:01;15.37;;;9.27;;
16890;SDS011;8562;52.246;20.966;2023-02-15T05:48:27;20.83;;;9.33;;
16890;SDS011;8562;52.246;20.966;2023-02-15T05:51:03;15.60;;;8.93;;
16890;SDS011;8562;52.246;20.966;2023-02-15T05:53:29;16.20;;;9.53;;
16890;SDS011;8562;52.246;20.966;2023-02-15T05:55:54;16.90;;;9.03;;
16890;SDS011;8562;52.246;20.966;2023-02-15T05:58:24;18.57;;;9.57;;
16890;SDS011;8562;52.246;20.966;2023-02-15T06:00:49;15.77;;;8.47;;
16890;SDS011;8562;52.246;20.966;2023-02-15T06:03:15;16.87;;;10.13;;
16890;SDS011;8562;52.246;20.966;2023-02-15T06:05:40;14.17;;;8.93;;
16890;SDS011;8562;52.246;20.966;2023-02-15T06:08:05;17.50;;;9.37;;
16890;SDS011;8562;52.246;20.966;2023-02-15T06:10:31;18.43;;;8.33;;
16890;SDS011;8562;52.246;20.966;2023-02-15T06:12:56;13.97;;;8.90;;
16890;SDS011;8562;52.246;20.966;2023-02-15T06:15:21;18.90;;;9.47;;
16890;SDS011;8562;52.246;20.966;2023-02-15T06:17:46;19.77;;;8.87;;
16890;SDS011;8562;52.246;20.966;2023-02-15T06:20:12;19.03;;;9.50;;
16890;SDS011;8562;52.246;20.966;2023-02-15T06:22:37;18.83;;;10.10;;
16890;SDS011;8562;52.246;20.966;2023-02-15T06:25:03;21.03;;;9.53;;
16890;SDS011;8562;52.246;20.966;2023-02-15T06:27:28;21.83;;;10.50;;
16890;SDS011;8562;52.246;20.966;2023-02-15T06:29:53;16.03;;;9.53;;
16890;SDS011;8562;52.246;20.966;2023-02-15T06:32:19;19.17;;;10.20;;
16890;SDS011;8562;52.246;20.966;2023-02-15T06:34:44;17.50;;;10.57;;
16890;SDS011;8562;52.246;20.966;2023-02-15T06:37:09;13.60;;;9.27;;
16890;SDS011;8562;52.246;20.966;2023-02-15T06:39:35;14.67;;;9.77;;
16890;SDS011;8562;52.246;20.966;2023-02-15T06:42:00;14.70;;;8.23;;
16890;SDS011;8562;52.246;20.966;2023-02-15T06:44:25;16.93;;;8.77;;
16890;SDS011;8562;52.246;20.966;2023-02-15T06:46:51;16.13;;;8.97;;
16890;SDS011;8562;52.246;20.966;2023-02-15T06:49:16;20.13;;;11.23;;
16890;SDS011;8562;52.246;20.966;2023-02-15T06:51:41;19.10;;;10.17;;
16890;SDS011;8562;52.246;20.966;2023-02-15T06:54:07;15.67;;;9.47;;
16890;SDS011;8562;52.246;20.966;2023-02-15T06:56:32;16.07;;;9.57;;
16890;SDS011;8562;52.246;20.966;2023-02-15T06:58:57;16.50;;;8.90;;
16890;SDS011;8562;52.246;20.966;2023-02-15T07:01:23;15.07;;;8.00;;
16890;SDS011;8562;52.246;20.966;2023-02-15T07:03:48;21.53;;;9.47;;
16890;SDS011;8562;52.246;20.966;2023-02-15T07:06:13;17.77;;;8.67;;
16890;SDS011;8562;52.246;20.966;2023-02-15T07:08:39;14.53;;;8.37;;
16890;SDS011;8562;52.246;20.966;2023-02-15T07:11:05;21.97;;;9.73;;
16890;SDS011;8562;52.246;20.966;2023-02-15T07:13:49;15.50;;;8.93;;
16890;SDS011;8562;52.246;20.966;2023-02-15T07:16:15;17.03;;;9.40;;
16890;SDS011;8562;52.246;20.966;2023-02-15T07:18:40;14.87;;;9.37;;
16890;SDS011;8562;52.246;20.966;2023-02-15T07:21:06;20.73;;;10.13;;
16890;SDS011;8562;52.246;20.966;2023-02-15T07:23:36;23.60;;;9.97;;
16890;SDS011;8562;52.246;20.966;2023-02-15T07:26:02;17.60;;;9.30;;
16890;SDS011;8562;52.246;20.966;2023-02-15T07:28:28;16.70;;;9.73;;
16890;SDS011;8562;52.246;20.966;2023-02-15T07:30:53;18.83;;;9.27;;
16890;SDS011;8562;52.246;20.966;2023-02-15T07:33:19;18.07;;;10.00;;
16890;SDS011;8562;52.246;20.966;2023-02-15T07:36:01;16.07;;;9.23;;
16890;SDS011;8562;52.246;20.966;2023-02-15T07:38:30;18.73;;;9.53;;
16890;SDS011;8562;52.246;20.966;2023-02-15T07:40:59;15.07;;;9.10;;
16890;SDS011;8562;52.246;20.966;2023-02-15T07:43:25;13.10;;;8.23;;
16890;SDS011;8562;52.246;20.966;2023-02-15T07:45:50;21.97;;;9.73;;
16890;SDS011;8562;52.246;20.966;2023-02-15T07:48:15;13.70;;;8.77;;
16890;SDS011;8562;52.246;20.966;2023-02-15T07:50:40;17.83;;;10.10;;
16890;SDS011;8562;52.246;20.966;2023-02-15T07:53:06;17.37;;;9.60;;
16890;SDS011;8562;52.246;20.966;2023-02-15T07:55:31;19.07;;;11.37;;
16890;SDS011;8562;52.246;20.966;2023-02-15T07:57:56;20.57;;;9.97;;
16890;SDS011;8562;52.246;20.966;2023-02-15T08:00:22;15.40;;;10.07;;
16890;SDS011;8562;52.246;20.966;2023-02-15T08:02:53;18.47;;;10.60;;
16890;SDS011;8562;52.246;20.966;2023-02-15T08:05:37;19.67;;;10.20;;
16890;SDS011;8562;52.246;20.966;2023-02-15T08:08:03;17.60;;;10.20;;
16890;SDS011;8562;52.246;20.966;2023-02-15T08:10:28;23.57;;;10.93;;
16890;SDS011;8562;52.246;20.966;2023-02-15T08:13:12;20.23;;;11.17;;
16890;SDS011;8562;52.246;20.966;2023-02-15T08:15:37;21.87;;;11.20;;
16890;SDS011;8562;52.246;20.966;2023-02-15T08:18:03;18.17;;;10.03;;
16890;SDS011;8562;52.246;20.966;2023-02-15T08:20:28;14.87;;;8.53;;
16890;SDS011;8562;52.246;20.966;2023-02-15T08:22:53;19.13;;;10.37;;
16890;SDS011;8562;52.246;20.966;2023-02-15T08:25:19;19.20;;;10.53;;
16890;SDS011;8562;52.246;20.966;2023-02-15T08:27:44;17.77;;;10.57;;
16890;SDS011;8562;52.246;20.966;2023-02-15T08:30:09;19.67;;;10.47;;
16890;SDS011;8562;52.246;20.966;2023-02-15T08:32:35;20.57;;;9.93;;
16890;SDS011;8562;52.246;20.966;2023-02-15T08:35:00;17.97;;;10.07;;
16890;SDS011;8562;52.246;20.966;2023-02-15T08:37:25;20.13;;;10.43;;
16890;SDS011;8562;52.246;20.966;2023-02-15T08:39:51;20.43;;;11.63;;
16890;SDS011;8562;52.246;20.966;2023-02-15T08:42:16;19.83;;;9.57;;
16890;SDS011;8562;52.246;20.966;2023-02-15T08:44:42;23.17;;;10.00;;
16890;SDS011;8562;52.246;20.966;2023-02-15T08:47:07;18.50;;;9.40;;
16890;SDS011;8562;52.246;20.966;2023-02-15T08:49:32;19.07;;;10.27;;
16890;SDS011;8562;52.246;20.966;2023-02-15T08:51:58;22.47;;;9.97;;
16890;SDS011;8562;52.246;20.966;2023-02-15T08:54:23;18.10;;;9.27;;
16890;SDS011;8562;52.246;20.966;2023-02-15T08:56:49;22.00;;;8.97;;
16890;SDS011;8562;52.246;20.966;2023-02-15T08:59:15;20.23;;;9.37;;
16890;SDS011;8562;52.246;20.966;2023-02-15T09:01:41;20.17;;;10.43;;
16890;SDS011;8562;52.246;20.966;2023-02-15T09:04:07;16.80;;;8.60;;
16890;SDS011;8562;52.246;20.966;2023-02-15T09:06:36;12.53;;;7.23;;
16890;SDS011;8562;52.246;20.966;2023-02-15T09:09:02;18.60;;;8.40;;
16890;SDS011;8562;52.246;20.966;2023-02-15T09:11:29;16.73;;;7.73;;
16890;SDS011;8562;52.246;20.966;2023-02-15T09:13:56;13.83;;;7.73;;
16890;SDS011;8562;52.246;20.966;2023-02-15T09:16:22;20.23;;;8.17;;
16890;SDS011;8562;52.246;20.966;2023-02-15T09:18:48;16.33;;;8.43;;
16890;SDS011;8562;52.246;20.966;2023-02-15T09:21:14;15.00;;;9.20;;
16890;SDS011;8562;52.246;20.966;2023-02-15T09:23:40;10.07;;;6.40;;
16890;SDS011;8562;52.246;20.966;2023-02-15T09:26:07;11.00;;;6.70;;
16890;SDS011;8562;52.246;20.966;2023-02-15T09:28:33;15.03;;;7.53;;
16890;SDS011;8562;52.246;20.966;2023-02-15T09:31:09;9.67;;;6.23;;
16890;SDS011;8562;52.246;20.966;2023-02-15T09:33:35;13.27;;;6.97;;
16890;SDS011;8562;52.246;20.966;2023-02-15T09:36:01;12.90;;;6.83;;
16890;SDS011;8562;52.246;20.966;2023-02-15T09:38:26;13.90;;;8.07;;
16890;SDS011;8562;52.246;20.966;2023-02-15T09:41:00;15.53;;;7.90;;
16890;SDS011;8562;52.246;20.966;2023-02-15T09:43:54;10.67;;;6.60;;
16890;SDS011;8562;52.246;20.966;2023-02-15T09:46:18;17.33;;;7.93;;
16890;SDS011;8562;52.246;20.966;2023-02-15T09:48:48;15.43;;;7.83;;
16890;SDS011;8562;52.246;20.966;2023-02-15T09:51:20;14.63;;;8.73;;
16890;SDS011;8562;52.246;20.966;2023-02-15T09:53:56;12.97;;;8.00;;
16890;SDS011;8562;52.246;20.966;2023-02-15T09:56:32;11.97;;;7.90;;
16890;SDS011;8562;52.246;20.966;2023-02-15T10:01:59;17.87;;;8.80;;
16890;SDS011;8562;52.246;20.966;2023-02-15T10:12:31;16.60;;;7.27;;
16890;SDS011;8562;52.246;20.966;2023-02-15T10:22:45;26.50;;;9.00;;
16890;SDS011;8562;52.246;20.966;2023-02-15T10:27:43;11.43;;;8.07;;
16890;SDS011;8562;52.246;20.966;2023-02-15T10:30:31;19.47;;;7.87;;
16890;SDS011;8562;52.246;20.966;2023-02-15T10:33:01;19.20;;;8.03;;
16890;SDS011;8562;52.246;20.966;2023-02-15T10:43:08;14.53;;;7.07;;
16890;SDS011;8562;52.246;20.966;2023-02-15T10:50:45;14.23;;;8.10;;
16890;SDS011;8562;52.246;20.966;2023-02-15T10:58:07;14.63;;;7.80;;
16890;SDS011;8562;52.246;20.966;2023-02-15T11:08:19;13.47;;;8.03;;
16890;SDS011;8562;52.246;20.966;2023-02-15T11:13:16;12.37;;;8.03;;
16890;SDS011;8562;52.246;20.966;2023-02-15T11:15:43;13.23;;;8.40;;
16890;SDS011;8562;52.246;20.966;2023-02-15T11:20:42;13.00;;;7.67;;
16890;SDS011;8562;52.246;20.966;2023-02-15T11:23:14;13.80;;;7.00;;
16890;SDS011;8562;52.246;20.966;2023-02-15T11:25:41;12.50;;;7.13;;
16890;SDS011;8562;52.246;20.966;2023-02-15T11:28:09;10.70;;;6.67;;
16890;SDS011;8562;52.246;20.966;2023-02-15T11:30:43;9.33;;;7.27;;
16890;SDS011;8562;52.246;20.966;2023-02-15T11:33:14;15.63;;;8.57;;
16890;SDS011;8562;52.246;20.966;2023-02-15T11:35:48;11.97;;;8.30;;
16890;SDS011;8562;52.246;20.966;2023-02-15T11:38:20;14.80;;;7.70;;
16890;SDS011;8562;52.246;20.966;2023-02-15T11:40:48;14.00;;;6.53;;
16890;SDS011;8562;52.246;20.966;2023-02-15T11:43:24;13.43;;;7.57;;
16890;SDS011;8562;52.246;20.966;2023-02-15T11:45:51;14.63;;;7.13;;
16890;SDS011;8562;52.246;20.966;2023-02-15T11:48:16;15.07;;;8.60;;
16890;SDS011;8562;52.246;20.966;2023-02-15T11:50:43;17.00;;;8.83;;
16890;SDS011;8562;52.246;20.966;2023-02-15T11:53:12;13.23;;;7.53;;
16890;SDS011;8562;52.246;20.966;2023-02-15T11:55:38;14.87;;;8.27;;
16890;SDS011;8562;52.246;20.966;2023-02-15T11:58:06;14.20;;;8.23;;
16890;SDS011;8562;52.246;20.966;2023-02-15T12:00:47;11.27;;;6.97;;
16890;SDS011;8562;52.246;20.966;2023-02-15T12:03:16;12.63;;;6.90;;
16890;SDS011;8562;52.246;20.966;2023-02-15T12:05:43;14.60;;;7.97;;
16890;SDS011;8562;52.246;20.966;2023-02-15T12:08:19;16.30;;;8.20;;
16890;SDS011;8562;52.246;20.966;2023-02-15T12:13:15;14.77;;;7.57;;
16890;SDS011;8562;52.246;20.966;2023-02-15T12:15:41;18.27;;;9.53;;
16890;SDS011;8562;52.246;20.966;2023-02-15T12:18:16;15.50;;;9.03;;
16890;SDS011;8562;52.246;20.966;2023-02-15T12:20:43;21.40;;;9.00;;
16890;SDS011;8562;52.246;20.966;2023-02-15T12:23:14;19.90;;;8.97;;
16890;SDS011;8562;52.246;20.966;2023-02-15T12:25:49;17.70;;;9.27;;
16890;SDS011;8562;52.246;20.966;2023-02-15T12:28:33;17.83;;;8.50;;
16890;SDS011;8562;52.246;20.966;2023-02-15T12:30:59;15.60;;;8.63;;
16890;SDS011;8562;52.246;20.966;2023-02-15T12:35:55;18.90;;;9.10;;
16890;SDS011;8562;52.246;20.966;2023-02-15T12:38:23;20.30;;;9.60;;
16890;SDS011;8562;52.246;20.966;2023-02-15T12:41:02;15.93;;;9.00;;
16890;SDS011;8562;52.246;20.966;2023-02-15T12:48:40;17.07;;;8.60;;
16890;SDS011;8562;52.246;20.966;2023-02-15T12:51:07;18.43;;;8.27;;
16890;SDS011;8562;52.246;20.966;2023-02-15T12:53:33;15.77;;;8.83;;
16890;SDS011;8562;52.246;20.966;2023-02-15T12:56:00;16.50;;;9.17;;
16890;SDS011;8562;52.246;20.966;2023-02-15T12:58:30;22.67;;;9.20;;
16890;SDS011;8562;52.246;20.966;2023-02-15T13:01:17;22.63;;;9.67;;
16890;SDS011;8562;52.246;20.966;2023-02-15T13:03:55;16.93;;;7.97;;
16890;SDS011;8562;52.246;20.966;2023-02-15T13:06:21;24.07;;;11.53;;
16890;SDS011;8562;52.246;20.966;2023-02-15T13:08:48;16.97;;;8.67;;
16890;SDS011;8562;52.246;20.966;2023-02-15T13:11:15;18.10;;;9.13;;
16890;SDS011;8562;52.246;20.966;2023-02-15T13:13:51;25.23;;;11.30;;
16890;SDS011;8562;52.246;20.966;2023-02-15T13:16:17;21.07;;;10.80;;
16890;SDS011;8562;52.246;20.966;2023-02-15T13:18:45;28.63;;;13.07;;
16890;SDS011;8562;52.246;20.966;2023-02-15T13:21:21;21.87;;;11.50;;
16890;SDS011;8562;52.246;20.966;2023-02-15T13:23:51;24.20;;;9.87;;
16890;SDS011;8562;52.246;20.966;2023-02-15T13:26:21;22.00;;;9.83;;
16890;SDS011;8562;52.246;20.966;2023-02-15T13:28:48;21.67;;;11.53;;
16890;SDS011;8562;52.246;20.966;2023-02-15T13:31:17;17.80;;;9.57;;
16890;SDS011;8562;52.246;20.966;2023-02-15T13:33:44;20.10;;;10.67;;
16890;SDS011;8562;52.246;20.966;2023-02-15T13:36:22;20.03;;;10.10;;
16890;SDS011;8562;52.246;20.966;2023-02-15T13:38:55;20.37;;;12.40;;
16890;SDS011;8562;52.246;20.966;2023-02-15T13:41:41;19.50;;;9.93;;
16890;SDS011;8562;52.246;20.966;2023-02-15T13:49:06;22.70;;;10.83;;
16890;SDS011;8562;52.246;20.966;2023-02-15T13:51:43;22.70;;;10.60;;
16890;SDS011;8562;52.246;20.966;2023-02-15T13:54:31;16.53;;;8.37;;
16890;SDS011;8562;52.246;20.966;2023-02-15T14:20:04;18.00;;;10.07;;
16890;SDS011;8562;52.246;20.966;2023-02-15T14:22:38;20.97;;;10.13;;
16890;SDS011;8562;52.246;20.966;2023-02-15T14:25:15;16.33;;;9.07;;
16890;SDS011;8562;52.246;20.966;2023-02-15T14:30:27;15.97;;;9.83;;
16890;SDS011;8562;52.246;20.966;2023-02-15T14:32:54;25.17;;;11.70;;
16890;SDS011;8562;52.246;20.966;2023-02-15T14:35:22;25.07;;;11.43;;
16890;SDS011;8562;52.246;20.966;2023-02-15T14:38:01;21.13;;;9.93;;
16890;SDS011;8562;52.246;20.966;2023-02-15T14:40:32;23.33;;;12.37;;
16890;SDS011;8562;52.246;20.966;2023-02-15T14:45:50;19.23;;;10.80;;
16890;SDS011;8562;52.246;20.966;2023-02-15T14:48:25;19.87;;;11.60;;
16890;SDS011;8562;52.246;20.966;2023-02-15T14:50:54;17.40;;;10.23;;
16890;SDS011;8562;52.246;20.966;2023-02-15T14:58:34;22.00;;;12.70;;
16890;SDS011;8562;52.246;20.966;2023-02-15T15:01:06;20.53;;;13.23;;
16890;SDS011;8562;52.246;20.966;2023-02-15T15:03:32;25.03;;;11.83;;
16890;SDS011;8562;52.246;20.966;2023-02-15T15:05:58;21.23;;;11.70;;
16890;SDS011;8562;52.246;20.966;2023-02-15T15:08:45;29.20;;;14.17;;
16890;SDS011;8562;52.246;20.966;2023-02-15T15:14:00;22.83;;;13.37;;
16890;SDS011;8562;52.246;20.966;2023-02-15T15:17:08;30.67;;;12.83;;
16890;SDS011;8562;52.246;20.966;2023-02-15T15:19:56;22.83;;;11.70;;
16890;SDS011;8562;52.246;20.966;2023-02-15T15:22:03;27.27;;;13.43;;
16890;SDS011;8562;52.246;20.966;2023-02-15T15:29:47;26.00;;;13.03;;
16890;SDS011;8562;52.246;20.966;2023-02-15T15:32:12;24.57;;;12.13;;
16890;SDS011;8562;52.246;20.966;2023-02-15T15:34:48;30.73;;;13.10;;
16890;SDS011;8562;52.246;20.966;2023-02-15T15:48:28;23.07;;;11.90;;
16890;SDS011;8562;52.246;20.966;2023-02-15T15:50:56;19.57;;;9.70;;
16890;SDS011;8562;52.246;20.966;2023-02-15T15:53:23;21.03;;;10.07;;
16890;SDS011;8562;52.246;20.966;2023-02-15T15:55:50;19.60;;;10.83;;
16890;SDS011;8562;52.246;20.966;2023-02-15T15:58:16;23.93;;;11.83;;
16890;SDS011;8562;52.246;20.966;2023-02-15T16:00:43;23.53;;;10.27;;
16890;SDS011;8562;52.246;20.966;2023-02-15T16:03:29;24.30;;;10.53;;
16890;SDS011;8562;52.246;20.966;2023-02-15T16:05:55;20.17;;;10.43;;
16890;SDS011;8562;52.246;20.966;2023-02-15T16:10:51;23.83;;;11.00;;
16890;SDS011;8562;52.246;20.966;2023-02-15T16:13:17;20.83;;;10.53;;
16890;SDS011;8562;52.246;20.966;2023-02-15T16:15:43;18.67;;;8.77;;
16890;SDS011;8562;52.246;20.966;2023-02-15T16:18:11;18.97;;;10.20;;
16890;SDS011;8562;52.246;20.966;2023-02-15T16:20:38;22.33;;;9.63;;
16890;SDS011;8562;52.246;20.966;2023-02-15T16:24:08;15.60;;;8.40;;
16890;SDS011;8562;52.246;20.966;2023-02-15T16:26:18;17.90;;;8.63;;
16890;SDS011;8562;52.246;20.966;2023-02-15T16:28:52;13.57;;;7.90;;
16890;SDS011;8562;52.246;20.966;2023-02-15T16:31:18;20.03;;;8.93;;
16890;SDS011;8562;52.246;20.966;2023-02-15T16:33:44;18.93;;;9.77;;
16890;SDS011;8562;52.246;20.966;2023-02-15T16:36:10;23.17;;;10.93;;
16890;SDS011;8562;52.246;20.966;2023-02-15T16:41:15;19.00;;;11.13;;
16890;SDS011;8562;52.246;20.966;2023-02-15T16:43:42;17.40;;;9.00;;
16890;SDS011;8562;52.246;20.966;2023-02-15T16:46:10;15.57;;;8.13;;
16890;SDS011;8562;52.246;20.966;2023-02-15T16:48:40;18.07;;;9.57;;
16890;SDS011;8562;52.246;20.966;2023-02-15T16:51:07;16.33;;;9.30;;
16890;SDS011;8562;52.246;20.966;2023-02-15T16:53:33;17.53;;;8.83;;
16890;SDS011;8562;52.246;20.966;2023-02-15T16:56:00;22.83;;;10.67;;
16890;SDS011;8562;52.246;20.966;2023-02-15T16:58:30;19.17;;;10.17;;
16890;SDS011;8562;52.246;20.966;2023-02-15T17:00:57;15.73;;;10.20;;
16890;SDS011;8562;52.246;20.966;2023-02-15T17:03:24;18.90;;;9.27;;
16890;SDS011;8562;52.246;20.966;2023-02-15T17:08:15;20.00;;;9.07;;
16890;SDS011;8562;52.246;20.966;2023-02-15T17:10:42;18.57;;;8.43;;
16890;SDS011;8562;52.246;20.966;2023-02-15T17:13:13;18.30;;;9.77;;
16890;SDS011;8562;52.246;20.966;2023-02-15T17:15:40;19.13;;;9.23;;
16890;SDS011;8562;52.246;20.966;2023-02-15T17:20:32;19.23;;;9.57;;